sensor_id;sensor_type;location;lat;lon;timestamp;temperature;humidity
47540;DHT22;33280;52.152;21.052;2022-12-10T00:01:21;1.20;99.90
47540;DHT22;33280;52.152;21.052;2022-12-10T00:03:51;1.10;99.90
47540;DHT22;33280;52.152;21.052;2022-12-10T00:06:21;1.20;99.90
47540;DHT22;33280;52.152;21.052;2022-12-10T00:08:48;1.10;99.90
47540;DHT22;33280;52.152;21.052;2022-12-10T00:11:20;1.00;99.90
47540;DHT22;33280;52.152;21.052;2022-12-10T00:13:48;0.90;99.90
47540;DHT22;33280;52.152;21.052;2022-12-10T00:16:20;0.90;99.90
47540;DHT22;33280;52.152;21.052;2022-12-10T00:18:51;0.90;99.90
47540;DHT22;33280;52.152;21.052;2022-12-10T00:21:33;0.90;99.90
47540;DHT22;33280;52.152;21.052;2022-12-10T00:24:01;0.90;99.90
47540;DHT22;33280;52.152;21.052;2022-12-10T00:26:31;0.90;99.90
47540;DHT22;33280;52.152;21.052;2022-12-10T00:29:01;0.90;99.90
47540;DHT22;33280;52.152;21.052;2022-12-10T00:31:31;0.90;99.90
47540;DHT22;33280;52.152;21.052;2022-12-10T00:34:01;0.90;99.90
47540;DHT22;33280;52.152;21.052;2022-12-10T00:36:34;0.90;99.90
47540;DHT22;33280;52.152;21.052;2022-12-10T00:39:02;0.90;99.90
47540;DHT22;33280;52.152;21.052;2022-12-10T00:41:30;0.90;99.90
47540;DHT22;33280;52.152;21.052;2022-12-10T00:43:57;0.90;99.90
47540;DHT22;33280;52.152;21.052;2022-12-10T00:46:24;0.80;99.90
47540;DHT22;33280;52.152;21.052;2022-12-10T00:48:51;0.90;99.90
47540;DHT22;33280;52.152;21.052;2022-12-10T00:51:23;0.90;99.90
47540;DHT22;33280;52.152;21.052;2022-12-10T00:53:52;0.90;99.90
47540;DHT22;33280;52.152;21.052;2022-12-10T00:56:21;1.00;99.90
47540;DHT22;33280;52.152;21.052;2022-12-10T00:58:49;1.00;99.90
47540;DHT22;33280;52.152;21.052;2022-12-10T01:01:39;1.00;99.90
47540;DHT22;33280;52.152;21.052;2022-12-10T01:04:10;1.00;99.90
47540;DHT22;33280;52.152;21.052;2022-12-10T01:06:45;1.00;99.90
47540;DHT22;33280;52.152;21.052;2022-12-10T01:09:15;0.90;99.90
47540;DHT22;33280;52.152;21.052;2022-12-10T01:11:44;0.90;99.90
47540;DHT22;33280;52.152;21.052;2022-12-10T01:14:15;0.80;99.90
47540;DHT22;33280;52.152;21.052;2022-12-10T01:16:44;0.90;99.90
47540;DHT22;33280;52.152;21.052;2022-12-10T01:19:11;1.00;99.90
47540;DHT22;33280;52.152;21.052;2022-12-10T01:21:39;1.00;99.90
47540;DHT22;33280;52.152;21.052;2022-12-10T01:24:06;1.10;99.90
47540;DHT22;33280;52.152;21.052;2022-12-10T01:26:34;1.00;99.90
47540;DHT22;33280;52.152;21.052;2022-12-10T01:29:02;1.00;99.90
47540;DHT22;33280;52.152;21.052;2022-12-10T01:31:32;1.00;99.90
47540;DHT22;33280;52.152;21.052;2022-12-10T01:34:00;1.00;99.90
47540;DHT22;33280;52.152;21.052;2022-12-10T01:36:34;0.90;99.90
47540;DHT22;33280;52.152;21.052;2022-12-10T01:39:04;0.90;99.90
47540;DHT22;33280;52.152;21.052;2022-12-10T01:41:34;0.80;99.90
47540;DHT22;33280;52.152;21.052;2022-12-10T01:46:44;1.00;99.90
47540;DHT22;33280;52.152;21.052;2022-12-10T01:49:14;1.00;99.90
47540;DHT22;33280;52.152;21.052;2022-12-10T01:51:43;0.90;99.90
47540;DHT22;33280;52.152;21.052;2022-12-10T01:54:18;0.90;99.90
47540;DHT22;33280;52.152;21.052;2022-12-10T01:56:59;0.90;99.90
47540;DHT22;33280;52.152;21.052;2022-12-10T01:59:27;0.90;99.90
47540;DHT22;33280;52.152;21.052;2022-12-10T02:02:08;0.90;99.90
47540;DHT22;33280;52.152;21.052;2022-12-10T02:18:40;0.90;99.90
47540;DHT22;33280;52.152;21.052;2022-12-10T02:21:17;0.90;99.90
47540;DHT22;33280;52.152;21.052;2022-12-10T02:23:49;0.90;99.90
47540;DHT22;33280;52.152;21.052;2022-12-10T02:29:12;0.90;99.90
47540;DHT22;33280;52.152;21.052;2022-12-10T02:34:30;0.80;99.90
47540;DHT22;33280;52.152;21.052;2022-12-10T02:37:06;0.90;99.90
47540;DHT22;33280;52.152;21.052;2022-12-10T02:39:40;0.90;99.90
47540;DHT22;33280;52.152;21.052;2022-12-10T02:42:10;0.70;99.90
47540;DHT22;33280;52.152;21.052;2022-12-10T02:44:40;0.80;99.90
47540;DHT22;33280;52.152;21.052;2022-12-10T02:47:09;0.70;99.90
47540;DHT22;33280;52.152;21.052;2022-12-10T02:49:37;0.80;99.90
47540;DHT22;33280;52.152;21.052;2022-12-10T02:52:12;0.80;99.90
47540;DHT22;33280;52.152;21.052;2022-12-10T02:54:44;0.70;99.90
47540;DHT22;33280;52.152;21.052;2022-12-10T03:00:15;0.70;99.90
47540;DHT22;33280;52.152;21.052;2022-12-10T03:03:00;0.80;99.90
47540;DHT22;33280;52.152;21.052;2022-12-10T03:08:24;0.80;99.90
47540;DHT22;33280;52.152;21.052;2022-12-10T03:11:08;0.80;99.90
47540;DHT22;33280;52.152;21.052;2022-12-10T03:16:45;0.70;99.90
47540;DHT22;33280;52.152;21.052;2022-12-10T03:19:18;0.70;99.90
47540;DHT22;33280;52.152;21.052;2022-12-10T03:21:47;0.70;99.90
47540;DHT22;33280;52.152;21.052;2022-12-10T03:24:17;0.70;99.90
47540;DHT22;33280;52.152;21.052;2022-12-10T03:26:47;0.70;99.90
47540;DHT22;33280;52.152;21.052;2022-12-10T03:29:19;0.60;99.90
47540;DHT22;33280;52.152;21.052;2022-12-10T03:31:49;0.60;99.90
47540;DHT22;33280;52.152;21.052;2022-12-10T03:34:17;0.60;99.90
47540;DHT22;33280;52.152;21.052;2022-12-10T03:36:45;0.60;99.90
47540;DHT22;33280;52.152;21.052;2022-12-10T03:39:12;0.60;99.90
47540;DHT22;33280;52.152;21.052;2022-12-10T03:41:40;0.60;99.90
47540;DHT22;33280;52.152;21.052;2022-12-10T03:44:07;0.70;99.90
47540;DHT22;33280;52.152;21.052;2022-12-10T03:46:34;0.70;99.90
47540;DHT22;33280;52.152;21.052;2022-12-10T03:49:02;0.70;99.90
47540;DHT22;33280;52.152;21.052;2022-12-10T03:51:29;0.70;99.90
47540;DHT22;33280;52.152;21.052;2022-12-10T03:53:56;0.70;99.90
47540;DHT22;33280;52.152;21.052;2022-12-10T03:56:23;0.80;99.90
47540;DHT22;33280;52.152;21.052;2022-12-10T03:58:50;0.70;99.90
47540;DHT22;33280;52.152;21.052;2022-12-10T04:01:17;0.70;99.90
47540;DHT22;33280;52.152;21.052;2022-12-10T04:03:44;0.70;99.90
47540;DHT22;33280;52.152;21.052;2022-12-10T04:06:17;0.60;99.90
47540;DHT22;33280;52.152;21.052;2022-12-10T04:08:45;0.60;99.90
47540;DHT22;33280;52.152;21.052;2022-12-10T04:11:13;0.60;99.90
47540;DHT22;33280;52.152;21.052;2022-12-10T04:13:41;0.60;99.90
47540;DHT22;33280;52.152;21.052;2022-12-10T04:16:27;0.60;99.90
47540;DHT22;33280;52.152;21.052;2022-12-10T04:18:58;0.60;99.90
47540;DHT22;33280;52.152;21.052;2022-12-10T04:21:28;0.60;99.90
47540;DHT22;33280;52.152;21.052;2022-12-10T04:24:16;0.60;99.90
47540;DHT22;33280;52.152;21.052;2022-12-10T04:27:11;0.60;99.90
47540;DHT22;33280;52.152;21.052;2022-12-10T04:29:38;0.50;99.90
47540;DHT22;33280;52.152;21.052;2022-12-10T04:32:06;0.50;99.90
47540;DHT22;33280;52.152;21.052;2022-12-10T04:34:33;0.50;99.90
47540;DHT22;33280;52.152;21.052;2022-12-10T04:37:01;0.50;99.90
47540;DHT22;33280;52.152;21.052;2022-12-10T04:39:28;0.50;99.90
47540;DHT22;33280;52.152;21.052;2022-12-10T04:41:55;0.50;99.90
47540;DHT22;33280;52.152;21.052;2022-12-10T04:44:22;0.50;99.90
47540;DHT22;33280;52.152;21.052;2022-12-10T04:46:49;0.50;99.90
47540;DHT22;33280;52.152;21.052;2022-12-10T04:49:16;0.50;99.90
47540;DHT22;33280;52.152;21.052;2022-12-10T04:51:44;0.50;99.90
47540;DHT22;33280;52.152;21.052;2022-12-10T04:54:12;0.50;99.90
47540;DHT22;33280;52.152;21.052;2022-12-10T04:56:39;0.50;99.90
47540;DHT22;33280;52.152;21.052;2022-12-10T04:59:07;0.60;99.90
47540;DHT22;33280;52.152;21.052;2022-12-10T05:01:34;0.60;99.90
47540;DHT22;33280;52.152;21.052;2022-12-10T05:04:03;0.50;99.90
47540;DHT22;33280;52.152;21.052;2022-12-10T05:06:31;0.50;99.90
47540;DHT22;33280;52.152;21.052;2022-12-10T05:08:58;0.50;99.90
47540;DHT22;33280;52.152;21.052;2022-12-10T05:11:27;0.60;99.90
47540;DHT22;33280;52.152;21.052;2022-12-10T05:13:55;0.60;99.90
47540;DHT22;33280;52.152;21.052;2022-12-10T05:16:24;0.60;99.90
47540;DHT22;33280;52.152;21.052;2022-12-10T05:18:52;0.60;99.90
47540;DHT22;33280;52.152;21.052;2022-12-10T05:21:21;0.70;99.90
47540;DHT22;33280;52.152;21.052;2022-12-10T05:23:51;0.60;99.90
47540;DHT22;33280;52.152;21.052;2022-12-10T05:26:20;0.60;99.90
47540;DHT22;33280;52.152;21.052;2022-12-10T05:28:53;0.60;99.90
47540;DHT22;33280;52.152;21.052;2022-12-10T05:31:26;0.60;99.90
47540;DHT22;33280;52.152;21.052;2022-12-10T05:33:53;0.60;99.90
47540;DHT22;33280;52.152;21.052;2022-12-10T05:36:23;0.60;99.90
47540;DHT22;33280;52.152;21.052;2022-12-10T05:38:50;0.60;99.90
47540;DHT22;33280;52.152;21.052;2022-12-10T05:41:22;0.60;99.90
47540;DHT22;33280;52.152;21.052;2022-12-10T05:43:52;0.60;99.90
47540;DHT22;33280;52.152;21.052;2022-12-10T05:46:22;0.70;99.90
47540;DHT22;33280;52.152;21.052;2022-12-10T05:48:50;0.70;99.90
47540;DHT22;33280;52.152;21.052;2022-12-10T05:51:20;0.60;99.90
47540;DHT22;33280;52.152;21.052;2022-12-10T05:53:48;0.60;99.90
47540;DHT22;33280;52.152;21.052;2022-12-10T05:56:18;0.50;99.90
47540;DHT22;33280;52.152;21.052;2022-12-10T05:58:46;0.60;99.90
47540;DHT22;33280;52.152;21.052;2022-12-10T06:01:20;0.50;99.90
47540;DHT22;33280;52.152;21.052;2022-12-10T06:03:47;0.50;99.90
47540;DHT22;33280;52.152;21.052;2022-12-10T06:06:24;0.50;99.90
47540;DHT22;33280;52.152;21.052;2022-12-10T06:08:52;0.50;99.90
47540;DHT22;33280;52.152;21.052;2022-12-10T06:11:19;0.60;99.90
47540;DHT22;33280;52.152;21.052;2022-12-10T06:13:47;0.60;99.90
47540;DHT22;33280;52.152;21.052;2022-12-10T06:16:21;0.60;99.90
47540;DHT22;33280;52.152;21.052;2022-12-10T06:18:48;0.60;99.90
47540;DHT22;33280;52.152;21.052;2022-12-10T06:21:16;0.60;99.90
47540;DHT22;33280;52.152;21.052;2022-12-10T06:23:44;0.70;99.90
47540;DHT22;33280;52.152;21.052;2022-12-10T06:26:19;0.70;99.90
47540;DHT22;33280;52.152;21.052;2022-12-10T06:28:47;0.70;99.90
47540;DHT22;33280;52.152;21.052;2022-12-10T06:31:15;0.70;99.90
47540;DHT22;33280;52.152;21.052;2022-12-10T06:33:43;0.60;99.90
47540;DHT22;33280;52.152;21.052;2022-12-10T06:36:12;0.60;99.90
47540;DHT22;33280;52.152;21.052;2022-12-10T06:38:39;0.60;99.90
47540;DHT22;33280;52.152;21.052;2022-12-10T06:41:08;0.60;99.90
47540;DHT22;33280;52.152;21.052;2022-12-10T06:43:36;0.60;99.90
47540;DHT22;33280;52.152;21.052;2022-12-10T06:46:07;0.70;99.90
47540;DHT22;33280;52.152;21.052;2022-12-10T06:48:35;0.60;99.90
47540;DHT22;33280;52.152;21.052;2022-12-10T06:51:04;0.60;99.90
47540;DHT22;33280;52.152;21.052;2022-12-10T06:53:32;0.60;99.90
47540;DHT22;33280;52.152;21.052;2022-12-10T06:56:00;0.50;99.90
47540;DHT22;33280;52.152;21.052;2022-12-10T06:58:28;0.50;99.90
47540;DHT22;33280;52.152;21.052;2022-12-10T07:01:07;0.60;99.90
47540;DHT22;33280;52.152;21.052;2022-12-10T07:03:34;0.60;99.90
47540;DHT22;33280;52.152;21.052;2022-12-10T07:06:02;0.70;99.90
47540;DHT22;33280;52.152;21.052;2022-12-10T07:08:30;0.60;99.90
47540;DHT22;33280;52.152;21.052;2022-12-10T07:10:57;0.60;99.90
47540;DHT22;33280;52.152;21.052;2022-12-10T07:13:25;0.70;99.90
47540;DHT22;33280;52.152;21.052;2022-12-10T07:15:56;0.70;99.90
47540;DHT22;33280;52.152;21.052;2022-12-10T07:18:24;0.80;99.90
47540;DHT22;33280;52.152;21.052;2022-12-10T07:20:51;0.80;99.90
47540;DHT22;33280;52.152;21.052;2022-12-10T07:23:19;0.80;99.90
47540;DHT22;33280;52.152;21.052;2022-12-10T07:25:46;0.80;99.90
47540;DHT22;33280;52.152;21.052;2022-12-10T07:28:13;0.90;99.90
47540;DHT22;33280;52.152;21.052;2022-12-10T07:30:40;0.90;99.90
47540;DHT22;33280;52.152;21.052;2022-12-10T07:33:07;0.80;99.90
47540;DHT22;33280;52.152;21.052;2022-12-10T07:35:34;0.80;99.90
47540;DHT22;33280;52.152;21.052;2022-12-10T07:38:04;0.80;99.90
47540;DHT22;33280;52.152;21.052;2022-12-10T07:40:31;0.70;99.90
47540;DHT22;33280;52.152;21.052;2022-12-10T07:42:58;0.70;99.90
47540;DHT22;33280;52.152;21.052;2022-12-10T07:45:25;0.70;99.90
47540;DHT22;33280;52.152;21.052;2022-12-10T07:47:52;0.80;99.90
47540;DHT22;33280;52.152;21.052;2022-12-10T07:50:18;0.80;99.90
47540;DHT22;33280;52.152;21.052;2022-12-10T07:52:45;0.80;99.90
47540;DHT22;33280;52.152;21.052;2022-12-10T07:55:12;0.70;99.90
47540;DHT22;33280;52.152;21.052;2022-12-10T07:57:39;0.80;99.90
47540;DHT22;33280;52.152;21.052;2022-12-10T08:00:07;0.80;99.90
47540;DHT22;33280;52.152;21.052;2022-12-10T08:02:35;0.80;99.90
47540;DHT22;33280;52.152;21.052;2022-12-10T08:05:02;0.90;99.90
47540;DHT22;33280;52.152;21.052;2022-12-10T08:07:29;0.90;99.90
47540;DHT22;33280;52.152;21.052;2022-12-10T08:09:56;0.90;99.90
47540;DHT22;33280;52.152;21.052;2022-12-10T08:12:23;0.90;99.90
47540;DHT22;33280;52.152;21.052;2022-12-10T08:14:50;0.80;99.90
47540;DHT22;33280;52.152;21.052;2022-12-10T08:17:18;0.80;99.90
47540;DHT22;33280;52.152;21.052;2022-12-10T08:19:45;0.80;99.90
47540;DHT22;33280;52.152;21.052;2022-12-10T08:22:12;0.80;99.90
47540;DHT22;33280;52.152;21.052;2022-12-10T08:24:39;0.80;99.90
47540;DHT22;33280;52.152;21.052;2022-12-10T08:27:06;0.80;99.90
47540;DHT22;33280;52.152;21.052;2022-12-10T08:29:33;0.80;99.90
47540;DHT22;33280;52.152;21.052;2022-12-10T08:32:00;0.90;99.90
47540;DHT22;33280;52.152;21.052;2022-12-10T08:34:27;0.90;99.90
47540;DHT22;33280;52.152;21.052;2022-12-10T08:36:54;0.90;99.90
47540;DHT22;33280;52.152;21.052;2022-12-10T08:39:21;0.90;99.90
47540;DHT22;33280;52.152;21.052;2022-12-10T08:41:47;0.90;99.90
47540;DHT22;33280;52.152;21.052;2022-12-10T08:44:14;0.80;99.90
47540;DHT22;33280;52.152;21.052;2022-12-10T08:46:41;0.80;99.90
47540;DHT22;33280;52.152;21.052;2022-12-10T08:49:09;0.90;99.90
47540;DHT22;33280;52.152;21.052;2022-12-10T08:51:36;0.90;99.90
47540;DHT22;33280;52.152;21.052;2022-12-10T08:54:03;1.00;99.90
47540;DHT22;33280;52.152;21.052;2022-12-10T08:56:30;1.00;99.90
47540;DHT22;33280;52.152;21.052;2022-12-10T08:58:58;1.00;99.90
47540;DHT22;33280;52.152;21.052;2022-12-10T09:01:25;1.00;99.90
47540;DHT22;33280;52.152;21.052;2022-12-10T09:03:52;1.00;99.90
47540;DHT22;33280;52.152;21.052;2022-12-10T09:06:22;1.10;99.90
47540;DHT22;33280;52.152;21.052;2022-12-10T09:08:53;1.00;99.90
47540;DHT22;33280;52.152;21.052;2022-12-10T09:11:24;1.00;99.90
47540;DHT22;33280;52.152;21.052;2022-12-10T09:13:51;1.00;99.90
47540;DHT22;33280;52.152;21.052;2022-12-10T09:16:18;1.10;99.90
47540;DHT22;33280;52.152;21.052;2022-12-10T09:18:46;1.10;99.90
47540;DHT22;33280;52.152;21.052;2022-12-10T09:21:15;1.10;99.90
47540;DHT22;33280;52.152;21.052;2022-12-10T09:23:43;1.10;99.90
47540;DHT22;33280;52.152;21.052;2022-12-10T09:26:15;1.10;99.90
47540;DHT22;33280;52.152;21.052;2022-12-10T09:28:43;1.10;99.90
47540;DHT22;33280;52.152;21.052;2022-12-10T09:31:11;1.10;99.90
47540;DHT22;33280;52.152;21.052;2022-12-10T09:33:45;1.20;99.90
47540;DHT22;33280;52.152;21.052;2022-12-10T09:36:12;1.20;99.90
47540;DHT22;33280;52.152;21.052;2022-12-10T09:38:42;1.30;99.90
47540;DHT22;33280;52.152;21.052;2022-12-10T09:44:12;1.20;99.90
47540;DHT22;33280;52.152;21.052;2022-12-10T09:46:58;1.20;99.90
47540;DHT22;33280;52.152;21.052;2022-12-10T09:52:13;1.20;99.90
47540;DHT22;33280;52.152;21.052;2022-12-10T09:54:47;1.20;99.90
47540;DHT22;33280;52.152;21.052;2022-12-10T10:00:10;1.20;99.90
47540;DHT22;33280;52.152;21.052;2022-12-10T10:02:42;1.20;99.90
47540;DHT22;33280;52.152;21.052;2022-12-10T10:07:44;1.20;99.90
47540;DHT22;33280;52.152;21.052;2022-12-10T10:10:27;1.30;99.90
47540;DHT22;33280;52.152;21.052;2022-12-10T10:15:45;1.30;99.90
47540;DHT22;33280;52.152;21.052;2022-12-10T10:20:51;1.30;99.90
47540;DHT22;33280;52.152;21.052;2022-12-10T10:23:18;1.30;99.90
47540;DHT22;33280;52.152;21.052;2022-12-10T10:25:46;1.30;99.90
47540;DHT22;33280;52.152;21.052;2022-12-10T10:28:20;1.30;99.90
47540;DHT22;33280;52.152;21.052;2022-12-10T10:30:48;1.30;99.90
47540;DHT22;33280;52.152;21.052;2022-12-10T10:33:16;1.30;99.90
47540;DHT22;33280;52.152;21.052;2022-12-10T10:35:45;1.30;99.90
47540;DHT22;33280;52.152;21.052;2022-12-10T10:38:20;1.40;99.90
47540;DHT22;33280;52.152;21.052;2022-12-10T10:40:55;1.40;99.90
47540;DHT22;33280;52.152;21.052;2022-12-10T10:43:28;1.50;99.90
47540;DHT22;33280;52.152;21.052;2022-12-10T10:46:11;1.50;99.90
47540;DHT22;33280;52.152;21.052;2022-12-10T10:48:41;1.50;99.90
47540;DHT22;33280;52.152;21.052;2022-12-10T10:53:45;1.60;99.90
47540;DHT22;33280;52.152;21.052;2022-12-10T10:56:17;1.60;99.90
47540;DHT22;33280;52.152;21.052;2022-12-10T10:58:55;1.70;99.90
47540;DHT22;33280;52.152;21.052;2022-12-10T11:01:25;1.60;99.90
47540;DHT22;33280;52.152;21.052;2022-12-10T11:03:57;1.70;99.90
47540;DHT22;33280;52.152;21.052;2022-12-10T11:06:25;1.60;99.90
47540;DHT22;33280;52.152;21.052;2022-12-10T11:08:56;1.70;99.90
47540;DHT22;33280;52.152;21.052;2022-12-10T11:11:40;1.50;99.90
47540;DHT22;33280;52.152;21.052;2022-12-10T11:14:15;1.50;99.90
47540;DHT22;33280;52.152;21.052;2022-12-10T11:16:42;1.50;99.90
47540;DHT22;33280;52.152;21.052;2022-12-10T11:19:22;1.50;99.90
47540;DHT22;33280;52.152;21.052;2022-12-10T11:21:50;1.50;99.90
47540;DHT22;33280;52.152;21.052;2022-12-10T11:24:19;1.50;99.90
47540;DHT22;33280;52.152;21.052;2022-12-10T11:26:55;1.50;99.90
47540;DHT22;33280;52.152;21.052;2022-12-10T11:29:33;1.50;99.90
47540;DHT22;33280;52.152;21.052;2022-12-10T11:32:21;1.50;99.90
47540;DHT22;33280;52.152;21.052;2022-12-10T11:35:14;1.50;99.90
47540;DHT22;33280;52.152;21.052;2022-12-10T11:38:06;1.70;99.90
47540;DHT22;33280;52.152;21.052;2022-12-10T11:46:27;1.60;99.90
47540;DHT22;33280;52.152;21.052;2022-12-10T11:49:22;1.60;99.90
47540;DHT22;33280;52.152;21.052;2022-12-10T11:52:27;1.50;99.90
47540;DHT22;33280;52.152;21.052;2022-12-10T12:15:02;1.50;99.90
47540;DHT22;33280;52.152;21.052;2022-12-10T12:17:50;1.60;99.90
47540;DHT22;33280;52.152;21.052;2022-12-10T12:20:25;1.50;99.90
47540;DHT22;33280;52.152;21.052;2022-12-10T12:23:37;1.50;99.90
47540;DHT22;33280;52.152;21.052;2022-12-10T12:26:12;1.50;99.90
47540;DHT22;33280;52.152;21.052;2022-12-10T12:31:34;1.50;99.90
47540;DHT22;33280;52.152;21.052;2022-12-10T12:36:48;1.40;99.90
47540;DHT22;33280;52.152;21.052;2022-12-10T12:39:35;1.40;99.90
47540;DHT22;33280;52.152;21.052;2022-12-10T12:42:18;1.30;99.90
47540;DHT22;33280;52.152;21.052;2022-12-10T12:45:03;1.30;99.90
47540;DHT22;33280;52.152;21.052;2022-12-10T12:50:54;1.40;99.90
47540;DHT22;33280;52.152;21.052;2022-12-10T12:53:23;1.40;99.90
47540;DHT22;33280;52.152;21.052;2022-12-10T12:55:54;1.40;99.90
47540;DHT22;33280;52.152;21.052;2022-12-10T12:58:34;1.50;99.90
47540;DHT22;33280;52.152;21.052;2022-12-10T13:01:33;1.40;99.90
47540;DHT22;33280;52.152;21.052;2022-12-10T13:10:07;1.50;99.90
47540;DHT22;33280;52.152;21.052;2022-12-10T13:12:48;1.40;99.90
47540;DHT22;33280;52.152;21.052;2022-12-10T13:15:20;1.40;99.90
47540;DHT22;33280;52.152;21.052;2022-12-10T13:20:51;1.40;99.90
47540;DHT22;33280;52.152;21.052;2022-12-10T13:23:29;1.40;99.90
47540;DHT22;33280;52.152;21.052;2022-12-10T13:25:58;1.40;99.90
47540;DHT22;33280;52.152;21.052;2022-12-10T13:28:41;1.40;99.90
47540;DHT22;33280;52.152;21.052;2022-12-10T13:34:29;1.30;99.90
47540;DHT22;33280;52.152;21.052;2022-12-10T13:37:03;1.30;99.90
47540;DHT22;33280;52.152;21.052;2022-12-10T13:39:46;1.30;99.90
47540;DHT22;33280;52.152;21.052;2022-12-10T13:45:27;1.20;99.90
47540;DHT22;33280;52.152;21.052;2022-12-10T13:48:26;1.20;99.90
47540;DHT22;33280;52.152;21.052;2022-12-10T13:53:43;1.20;99.90
47540;DHT22;33280;52.152;21.052;2022-12-10T13:56:41;1.30;99.90
47540;DHT22;33280;52.152;21.052;2022-12-10T14:02:12;1.10;99.90
47540;DHT22;33280;52.152;21.052;2022-12-10T14:07:32;1.20;99.90
47540;DHT22;33280;52.152;21.052;2022-12-10T14:10:00;1.20;99.90
47540;DHT22;33280;52.152;21.052;2022-12-10T14:12:34;1.20;99.90
47540;DHT22;33280;52.152;21.052;2022-12-10T14:15:07;1.10;99.90
47540;DHT22;33280;52.152;21.052;2022-12-10T14:17:40;1.00;99.90
47540;DHT22;33280;52.152;21.052;2022-12-10T14:20:18;1.10;99.90
47540;DHT22;33280;52.152;21.052;2022-12-10T14:22:48;1.10;99.90
47540;DHT22;33280;52.152;21.052;2022-12-10T14:25:21;1.10;99.90
47540;DHT22;33280;52.152;21.052;2022-12-10T14:27:53;1.00;99.90
47540;DHT22;33280;52.152;21.052;2022-12-10T14:30:25;1.00;99.90
47540;DHT22;33280;52.152;21.052;2022-12-10T14:32:59;1.00;99.90
47540;DHT22;33280;52.152;21.052;2022-12-10T14:35:27;0.90;99.90
47540;DHT22;33280;52.152;21.052;2022-12-10T14:37:57;1.00;99.90
47540;DHT22;33280;52.152;21.052;2022-12-10T14:40:39;1.00;99.90
47540;DHT22;33280;52.152;21.052;2022-12-10T14:43:21;1.00;99.90
47540;DHT22;33280;52.152;21.052;2022-12-10T14:46:00;1.00;99.90
47540;DHT22;33280;52.152;21.052;2022-12-10T14:48:29;0.90;99.90
47540;DHT22;33280;52.152;21.052;2022-12-10T14:51:03;1.00;99.90
47540;DHT22;33280;52.152;21.052;2022-12-10T14:53:37;1.00;99.90
47540;DHT22;33280;52.152;21.052;2022-12-10T14:56:05;1.00;99.90
47540;DHT22;33280;52.152;21.052;2022-12-10T14:58:47;1.00;99.90
47540;DHT22;33280;52.152;21.052;2022-12-10T15:01:28;0.90;99.90
47540;DHT22;33280;52.152;21.052;2022-12-10T15:03:59;0.90;99.90
47540;DHT22;33280;52.152;21.052;2022-12-10T15:06:27;1.00;99.90
47540;DHT22;33280;52.152;21.052;2022-12-10T15:08:56;0.90;99.90
47540;DHT22;33280;52.152;21.052;2022-12-10T15:11:28;0.90;99.90
47540;DHT22;33280;52.152;21.052;2022-12-10T15:14:00;1.00;99.90
47540;DHT22;33280;52.152;21.052;2022-12-10T15:16:39;1.00;99.90
47540;DHT22;33280;52.152;21.052;2022-12-10T15:19:20;1.00;99.90
47540;DHT22;33280;52.152;21.052;2022-12-10T15:21:49;1.00;99.90
47540;DHT22;33280;52.152;21.052;2022-12-10T15:24:25;0.90;99.90
47540;DHT22;33280;52.152;21.052;2022-12-10T15:26:53;0.90;99.90
47540;DHT22;33280;52.152;21.052;2022-12-10T15:31:56;0.90;99.90
47540;DHT22;33280;52.152;21.052;2022-12-10T15:34:28;0.90;99.90
47540;DHT22;33280;52.152;21.052;2022-12-10T15:36:56;1.00;99.90
47540;DHT22;33280;52.152;21.052;2022-12-10T15:39:34;1.00;99.90
47540;DHT22;33280;52.152;21.052;2022-12-10T15:42:07;1.00;99.90
47540;DHT22;33280;52.152;21.052;2022-12-10T15:44:40;1.00;99.90
47540;DHT22;33280;52.152;21.052;2022-12-10T15:47:21;1.00;99.90
47540;DHT22;33280;52.152;21.052;2022-12-10T15:49:50;1.10;99.90
47540;DHT22;33280;52.152;21.052;2022-12-10T15:52:22;1.10;99.90
47540;DHT22;33280;52.152;21.052;2022-12-10T15:54:51;1.10;99.90
47540;DHT22;33280;52.152;21.052;2022-12-10T15:57:26;1.10;99.90
47540;DHT22;33280;52.152;21.052;2022-12-10T16:00:00;1.10;99.90
47540;DHT22;33280;52.152;21.052;2022-12-10T16:02:39;1.00;99.90
47540;DHT22;33280;52.152;21.052;2022-12-10T16:07:37;1.00;99.90
47540;DHT22;33280;52.152;21.052;2022-12-10T16:10:05;1.00;99.90
47540;DHT22;33280;52.152;21.052;2022-12-10T16:12:33;0.90;99.90
47540;DHT22;33280;52.152;21.052;2022-12-10T16:18:05;1.00;99.90
47540;DHT22;33280;52.152;21.052;2022-12-10T16:20:36;0.90;99.90
47540;DHT22;33280;52.152;21.052;2022-12-10T16:23:10;0.90;99.90
47540;DHT22;33280;52.152;21.052;2022-12-10T16:25:38;1.00;99.90
47540;DHT22;33280;52.152;21.052;2022-12-10T16:28:15;1.00;99.90
47540;DHT22;33280;52.152;21.052;2022-12-10T16:30:45;1.20;99.90
47540;DHT22;33280;52.152;21.052;2022-12-10T16:33:16;1.10;99.90
47540;DHT22;33280;52.152;21.052;2022-12-10T16:35:52;1.10;99.90
47540;DHT22;33280;52.152;21.052;2022-12-10T16:38:20;1.00;99.90
47540;DHT22;33280;52.152;21.052;2022-12-10T16:40:55;1.00;99.90
47540;DHT22;33280;52.152;21.052;2022-12-10T16:43:32;1.00;99.90
47540;DHT22;33280;52.152;21.052;2022-12-10T16:45:59;1.00;99.90
47540;DHT22;33280;52.152;21.052;2022-12-10T16:48:27;1.00;99.90
47540;DHT22;33280;52.152;21.052;2022-12-10T16:50:58;1.00;99.90
47540;DHT22;33280;52.152;21.052;2022-12-10T16:53:34;0.90;99.90
47540;DHT22;33280;52.152;21.052;2022-12-10T16:56:04;0.80;99.90
47540;DHT22;33280;52.152;21.052;2022-12-10T16:58:32;0.90;99.90
47540;DHT22;33280;52.152;21.052;2022-12-10T17:00:59;0.90;99.90
47540;DHT22;33280;52.152;21.052;2022-12-10T17:03:32;0.80;99.90
47540;DHT22;33280;52.152;21.052;2022-12-10T17:06:09;0.80;99.90
47540;DHT22;33280;52.152;21.052;2022-12-10T17:08:46;0.80;99.90
47540;DHT22;33280;52.152;21.052;2022-12-10T17:11:18;0.70;99.90
47540;DHT22;33280;52.152;21.052;2022-12-10T17:14:08;0.80;99.90
47540;DHT22;33280;52.152;21.052;2022-12-10T17:16:39;0.80;99.90
47540;DHT22;33280;52.152;21.052;2022-12-10T17:19:08;0.80;99.90
47540;DHT22;33280;52.152;21.052;2022-12-10T17:21:38;0.90;99.90
47540;DHT22;33280;52.152;21.052;2022-12-10T17:24:06;0.90;99.90
47540;DHT22;33280;52.152;21.052;2022-12-10T17:26:43;0.80;99.90
47540;DHT22;33280;52.152;21.052;2022-12-10T17:29:30;0.90;99.90
47540;DHT22;33280;52.152;21.052;2022-12-10T17:32:03;0.90;99.90
47540;DHT22;33280;52.152;21.052;2022-12-10T17:34:32;0.80;99.90
47540;DHT22;33280;52.152;21.052;2022-12-10T17:37:00;0.80;99.90
47540;DHT22;33280;52.152;21.052;2022-12-10T17:39:30;0.70;99.90
47540;DHT22;33280;52.152;21.052;2022-12-10T17:42:00;0.70;99.90
47540;DHT22;33280;52.152;21.052;2022-12-10T17:44:30;0.70;99.90
47540;DHT22;33280;52.152;21.052;2022-12-10T17:47:01;0.90;99.90
47540;DHT22;33280;52.152;21.052;2022-12-10T17:49:29;0.90;99.90
47540;DHT22;33280;52.152;21.052;2022-12-10T17:52:21;0.90;99.90
47540;DHT22;33280;52.152;21.052;2022-12-10T17:54:55;0.70;99.90